Time;durP1;ratioP1;P1;durP2;ratioP2;P2;SDS_P1;SDS_P2;PMS_P1;PMS_P2;Temp;Humidity;BMP_temperature;BMP_pressure;BME280_temperature;BME280_humidity;BME280_pressure;Samples;Min_cycle;Max_cycle;Signal;HPM_P1;HPM_P2
2022/10/13 00:01:54;;;;;;;3.22;1.20;;;17.30;80.70;;;;;;5095791;28;20432;-71
2022/10/13 00:04:19;;;;;;;2.25;1.13;;;17.30;80.50;;;;;;5096215;28;20494;-71
2022/10/13 00:06:45;;;;;;;1.77;1.00;;;17.30;80.50;;;;;;5094773;28;20074;-70
2022/10/13 00:09:11;;;;;;;1.98;1.10;;;17.30;80.50;;;;;;5101979;28;20020;-71
2022/10/13 00:11:36;;;;;;;3.22;1.50;;;17.30;80.60;;;;;;5115011;28;20115;-70
2022/10/13 00:14:02;;;;;;;2.33;0.98;;;17.30;80.60;;;;;;5115734;28;20483;-70
2022/10/13 00:16:29;;;;;;;5.45;1.38;;;17.30;80.50;;;;;;5077755;28;20032;-71
2022/10/13 00:18:55;;;;;;;3.03;1.30;;;17.30;80.60;;;;;;5094559;28;20107;-71
2022/10/13 00:21:23;;;;;;;5.45;1.52;;;17.30;80.50;;;;;;5095461;28;20067;-71
2022/10/13 00:23:49;;;;;;;2.20;1.10;;;17.30;80.60;;;;;;5094272;28;20027;-71
2022/10/13 00:26:15;;;;;;;3.90;1.45;;;17.30;80.60;;;;;;5095511;28;20055;-70
2022/10/13 00:28:41;;;;;;;4.25;1.23;;;17.30;80.70;;;;;;5094050;28;20051;-71
2022/10/13 00:31:27;;;;;;;3.60;1.35;;;17.30;80.60;;;;;;5094099;28;20039;-70
2022/10/13 00:33:52;;;;;;;2.42;1.23;;;17.30;80.50;;;;;;5094014;28;20016;-70
2022/10/13 00:36:19;;;;;;;1.55;1.10;;;17.30;80.70;;;;;;5076292;28;20058;-70
2022/10/13 00:38:44;;;;;;;2.40;1.33;;;17.30;80.70;;;;;;5094003;28;20020;-70
2022/10/13 00:41:10;;;;;;;5.15;1.23;;;17.30;80.70;;;;;;5094944;28;20030;-70
2022/10/13 00:43:48;;;;;;;2.58;1.40;;;17.30;80.70;;;;;;5093994;28;20104;-70
2022/10/13 00:46:14;;;;;;;2.60;1.73;;;17.30;80.60;;;;;;5094926;28;20030;-70
2022/10/13 00:48:40;;;;;;;2.83;1.35;;;17.30;80.70;;;;;;5093969;28;20474;-70
2022/10/13 00:51:05;;;;;;;2.33;1.10;;;17.30;80.60;;;;;;5093743;28;20024;-70
2022/10/13 00:53:34;;;;;;;2.40;1.33;;;17.30;80.70;;;;;;5077071;28;20066;-70
2022/10/13 00:55:59;;;;;;;4.03;1.33;;;17.30;80.60;;;;;;5076979;28;20032;-70
2022/10/13 00:58:30;;;;;;;4.35;1.58;;;17.30;80.70;;;;;;5093735;28;20363;-70
2022/10/13 01:00:55;;;;;;;2.65;1.17;;;17.30;80.60;;;;;;5093843;28;20023;-70
2022/10/13 01:03:21;;;;;;;3.58;1.30;;;17.30;80.60;;;;;;5094690;28;20020;-70
2022/10/13 01:05:47;;;;;;;3.00;1.20;;;17.30;80.60;;;;;;5093493;28;20043;-70
2022/10/13 01:08:13;;;;;;;2.20;1.70;;;17.30;80.70;;;;;;5093644;28;20016;-70
2022/10/13 01:10:51;;;;;;;2.67;1.63;;;17.30;80.70;;;;;;5082495;28;20092;-70
2022/10/13 01:13:21;;;;;;;3.05;1.23;;;17.30;80.70;;;;;;5094769;28;20020;-70
2022/10/13 01:15:52;;;;;;;3.45;1.60;;;17.30;80.70;;;;;;5093278;28;20032;-70
2022/10/13 01:18:28;;;;;;;2.05;1.27;;;17.30;80.70;;;;;;5093300;28;20020;-70
2022/10/13 01:21:05;;;;;;;4.32;1.60;;;17.30;80.70;;;;;;5094366;28;20032;-70
2022/10/13 01:23:46;;;;;;;2.25;1.10;;;17.30;80.70;;;;;;5094476;28;20080;-70
2022/10/13 01:26:26;;;;;;;2.85;1.20;;;17.30;80.70;;;;;;5094129;28;20016;-70
2022/10/13 01:28:52;;;;;;;2.45;1.10;;;17.30;80.70;;;;;;5093307;28;20048;-70
2022/10/13 01:31:29;;;;;;;1.95;0.90;;;17.30;80.80;;;;;;5094185;28;20020;-70
2022/10/13 01:34:00;;;;;;;3.17;1.20;;;17.30;80.80;;;;;;5092974;28;20024;-70
2022/10/13 01:36:40;;;;;;;2.40;1.30;;;17.30;80.80;;;;;;5092925;28;20028;-70
2022/10/13 01:39:14;;;;;;;2.63;1.30;;;17.30;80.70;;;;;;5092369;28;20055;-70
2022/10/13 01:41:45;;;;;;;2.33;1.30;;;17.30;80.80;;;;;;5092980;28;20020;-70
2022/10/13 01:44:15;;;;;;;2.58;1.40;;;17.30;80.80;;;;;;5092830;28;20107;-70
2022/10/13 01:46:41;;;;;;;4.00;1.15;;;17.30;80.80;;;;;;5093499;28;20059;-70
2022/10/13 01:49:10;;;;;;;5.95;1.30;;;17.30;80.80;;;;;;5093734;28;20069;-70
2022/10/13 01:51:36;;;;;;;5.18;1.33;;;17.30;80.90;;;;;;5075824;28;20024;-70
2022/10/13 01:54:02;;;;;;;4.32;1.13;;;17.30;80.90;;;;;;5092204;28;20051;-70
2022/10/13 01:56:27;;;;;;;3.50;1.10;;;17.30;81.00;;;;;;5092479;28;20530;-70
2022/10/13 01:58:53;;;;;;;2.95;0.98;;;17.30;80.90;;;;;;5075762;28;20058;-70
2022/10/13 02:01:28;;;;;;;3.53;1.40;;;17.30;81.00;;;;;;5092344;28;20486;-70
2022/10/13 02:04:24;;;;;;;1.52;1.00;;;17.30;81.00;;;;;;5093584;28;20108;-70
2022/10/13 02:06:54;;;;;;;2.22;1.00;;;17.30;81.00;;;;;;5093492;28;20042;-70
2022/10/13 02:09:37;;;;;;;3.10;1.10;;;17.30;81.00;;;;;;5098089;28;20543;-70
2022/10/13 02:12:06;;;;;;;1.70;1.10;;;17.30;81.10;;;;;;5092149;28;20548;-70
2022/10/13 02:14:32;;;;;;;2.90;1.10;;;17.30;81.10;;;;;;5092286;28;20102;-70
2022/10/13 02:17:00;;;;;;;1.67;0.85;;;17.30;81.20;;;;;;5092375;28;20485;-70
2022/10/13 02:19:26;;;;;;;3.45;1.58;;;17.30;82.20;;;;;;5092170;28;20016;-71
2022/10/13 02:21:52;;;;;;;3.15;0.80;;;17.30;81.20;;;;;;5092014;28;20031;-70
2022/10/13 02:24:17;;;;;;;2.55;1.00;;;17.30;81.20;;;;;;5091881;28;20028;-70
2022/10/13 02:26:43;;;;;;;1.33;1.15;;;17.30;81.20;;;;;;5092010;28;20380;-70
2022/10/13 02:29:09;;;;;;;3.30;1.15;;;17.30;81.10;;;;;;5091886;28;20485;-70
2022/10/13 02:31:35;;;;;;;2.15;1.02;;;17.30;81.10;;;;;;5092007;28;20108;-70
2022/10/13 02:34:01;;;;;;;2.33;1.10;;;17.30;81.10;;;;;;5093156;28;20679;-70
2022/10/13 02:36:26;;;;;;;3.80;1.20;;;17.30;81.10;;;;;;5091898;28;20028;-70
2022/10/13 02:38:52;;;;;;;3.67;1.13;;;17.30;81.10;;;;;;5092850;28;20472;-70
2022/10/13 02:41:17;;;;;;;5.38;1.25;;;17.30;81.10;;;;;;5092739;28;20035;-70
2022/10/13 02:43:43;;;;;;;1.60;0.88;;;17.40;81.20;;;;;;5092881;28;20016;-70
2022/10/13 02:46:09;;;;;;;1.98;1.20;;;17.40;81.10;;;;;;5092814;28;20027;-70
2022/10/13 02:48:34;;;;;;;4.43;1.27;;;17.30;81.10;;;;;;5092870;28;20449;-70
2022/10/13 02:51:00;;;;;;;1.60;1.00;;;17.40;81.10;;;;;;5092724;28;20032;-70
2022/10/13 02:53:25;;;;;;;6.05;1.13;;;17.30;81.00;;;;;;5091276;28;20100;-70
2022/10/13 02:55:51;;;;;;;3.35;1.13;;;17.30;81.10;;;;;;5092723;28;20039;-70
2022/10/13 02:58:17;;;;;;;1.88;1.15;;;17.30;81.10;;;;;;5092461;28;20016;-70
2022/10/13 03:00:42;;;;;;;2.67;1.00;;;17.30;81.10;;;;;;5092351;28;20108;-70
2022/10/13 03:03:09;;;;;;;2.22;1.00;;;17.40;81.10;;;;;;5092368;28;20030;-70
2022/10/13 03:05:35;;;;;;;4.32;1.30;;;17.40;81.20;;;;;;5074785;28;20474;-70
2022/10/13 03:08:00;;;;;;;3.85;1.20;;;17.40;82.10;;;;;;5092413;28;20043;-70
2022/10/13 03:10:26;;;;;;;2.85;1.40;;;17.40;81.10;;;;;;5097531;28;20027;-70
2022/10/13 03:12:54;;;;;;;2.22;0.95;;;17.40;81.10;;;;;;5091444;28;20012;-70
2022/10/13 03:15:19;;;;;;;3.88;1.13;;;17.30;81.10;;;;;;5092301;28;20031;-70
2022/10/13 03:17:45;;;;;;;1.75;1.13;;;17.40;81.20;;;;;;5092541;28;20028;-70
2022/10/13 03:20:11;;;;;;;2.17;0.80;;;17.30;81.10;;;;;;5092606;28;20031;-70
2022/10/13 03:22:36;;;;;;;1.23;0.98;;;17.30;81.10;;;;;;5092340;28;20029;-70
2022/10/13 03:25:02;;;;;;;2.35;1.15;;;17.30;81.10;;;;;;5092532;28;20020;-70
2022/10/13 03:27:28;;;;;;;4.53;1.20;;;17.30;81.10;;;;;;5090869;28;20031;-70
2022/10/13 03:29:54;;;;;;;1.20;1.10;;;17.30;81.10;;;;;;5092441;28;20394;-70
2022/10/13 03:32:19;;;;;;;2.30;1.00;;;17.30;81.10;;;;;;5092218;28;20090;-70
2022/10/13 03:34:45;;;;;;;2.08;0.98;;;17.40;81.20;;;;;;5092595;28;20024;-70
2022/10/13 03:37:10;;;;;;;2.20;1.00;;;17.40;81.20;;;;;;5091952;28;20402;-71
2022/10/13 03:39:36;;;;;;;2.08;1.13;;;17.30;81.10;;;;;;5092171;28;20036;-70
2022/10/13 03:42:02;;;;;;;1.75;0.90;;;17.40;81.30;;;;;;5092121;28;20024;-71
2022/10/13 03:44:27;;;;;;;3.58;1.05;;;17.30;81.20;;;;;;5092114;28;20036;-70
2022/10/13 03:46:53;;;;;;;1.85;1.20;;;17.40;81.20;;;;;;5090990;28;20550;-70
2022/10/13 03:49:19;;;;;;;4.57;1.10;;;17.40;81.30;;;;;;5092133;28;20028;-70
2022/10/13 03:51:44;;;;;;;4.75;1.13;;;17.40;81.30;;;;;;5090696;28;20017;-70
2022/10/13 03:54:11;;;;;;;4.70;0.82;;;17.40;81.30;;;;;;5091833;28;20052;-70
2022/10/13 03:56:37;;;;;;;4.10;0.95;;;17.40;81.30;;;;;;5092077;28;20031;-70
2022/10/13 03:59:03;;;;;;;9.10;1.20;;;17.40;81.30;;;;;;5074179;28;20024;-70
2022/10/13 04:01:29;;;;;;;3.33;0.90;;;17.40;81.30;;;;;;5090827;28;20016;-70
2022/10/13 04:03:56;;;;;;;2.72;1.10;;;17.40;81.30;;;;;;5090533;28;20020;-70
2022/10/13 04:06:22;;;;;;;4.90;1.05;;;17.40;81.30;;;;;;5074104;28;20020;-70
2022/10/13 04:08:47;;;;;;;2.30;0.98;;;17.40;81.30;;;;;;5076789;28;20047;-70
2022/10/13 04:11:14;;;;;;;2.30;1.13;;;17.40;81.30;;;;;;5097336;28;20446;-70
2022/10/13 04:13:40;;;;;;;5.97;0.90;;;17.40;81.30;;;;;;5095044;28;20107;-70
2022/10/13 04:16:17;;;;;;;5.65;1.00;;;17.40;81.30;;;;;;5093240;28;20077;-70
2022/10/13 04:18:43;;;;;;;1.13;0.90;;;17.40;81.30;;;;;;5092833;28;20383;-70
2022/10/13 04:21:12;;;;;;;1.73;1.08;;;17.40;81.30;;;;;;5094120;28;20051;-70
2022/10/13 04:23:37;;;;;;;4.32;1.17;;;17.40;81.30;;;;;;5093537;28;20020;-70
2022/10/13 04:26:03;;;;;;;5.97;1.52;;;17.40;81.40;;;;;;5093664;28;20030;-70
2022/10/13 04:28:32;;;;;;;3.38;0.95;;;17.40;81.30;;;;;;5093308;28;20099;-71
2022/10/13 04:30:58;;;;;;;4.45;1.00;;;17.40;81.40;;;;;;5095582;28;20043;-70
2022/10/13 04:33:23;;;;;;;1.00;0.90;;;17.40;81.40;;;;;;5093257;28;20420;-70
2022/10/13 04:35:49;;;;;;;5.25;1.10;;;17.40;81.30;;;;;;5095283;28;20019;-70
2022/10/13 04:38:15;;;;;;;3.85;1.05;;;17.40;81.40;;;;;;5095173;28;20520;-70
2022/10/13 04:40:40;;;;;;;2.13;0.95;;;17.40;81.40;;;;;;5093765;28;20020;-70
2022/10/13 04:43:06;;;;;;;2.92;1.55;;;17.40;81.40;;;;;;5095172;28;20028;-70
2022/10/13 04:45:31;;;;;;;2.00;1.00;;;17.40;81.40;;;;;;5093706;28;20024;-70
2022/10/13 04:47:59;;;;;;;3.40;1.17;;;17.40;81.40;;;;;;5091400;28;20031;-70
2022/10/13 04:50:25;;;;;;;2.33;1.02;;;17.40;81.40;;;;;;5092788;28;20096;-70
2022/10/13 04:52:50;;;;;;;2.38;1.00;;;17.40;81.50;;;;;;5093813;28;20468;-70
2022/10/13 04:55:16;;;;;;;4.03;0.90;;;17.40;81.50;;;;;;5092906;28;20032;-70
2022/10/13 04:57:41;;;;;;;1.83;1.02;;;17.40;81.60;;;;;;5094368;28;20035;-70
2022/10/13 05:00:08;;;;;;;1.80;1.25;;;17.40;81.60;;;;;;5093796;28;20110;-70
2022/10/13 05:02:34;;;;;;;2.08;0.88;;;17.40;81.60;;;;;;5093148;28;20032;-70
2022/10/13 05:05:00;;;;;;;2.47;1.05;;;17.40;81.60;;;;;;5094617;28;20028;-70
2022/10/13 05:07:26;;;;;;;1.58;0.98;;;17.40;81.60;;;;;;5093529;28;20030;-70
2022/10/13 05:09:51;;;;;;;1.75;0.63;;;17.40;81.60;;;;;;5105134;28;20381;-70
2022/10/13 05:12:17;;;;;;;2.10;1.02;;;17.40;81.50;;;;;;5114959;28;20027;-70
2022/10/13 05:14:42;;;;;;;2.90;1.10;;;17.40;81.50;;;;;;5114762;28;20470;-70
2022/10/13 05:17:08;;;;;;;1.08;0.75;;;17.40;81.50;;;;;;5113921;28;20042;-70
2022/10/13 05:19:34;;;;;;;2.60;1.02;;;17.40;81.60;;;;;;5114861;28;20034;-70
2022/10/13 05:21:59;;;;;;;4.43;0.98;;;17.40;81.60;;;;;;5114228;28;20027;-70
2022/10/13 05:24:46;;;;;;;2.35;0.90;;;17.40;81.60;;;;;;5113403;28;20026;-70
2022/10/13 05:27:11;;;;;;;1.38;0.93;;;17.40;81.60;;;;;;5098980;28;20035;-70
2022/10/13 05:29:37;;;;;;;5.35;0.75;;;17.40;81.70;;;;;;5096418;28;20026;-70
2022/10/13 05:32:03;;;;;;;3.47;1.20;;;17.40;81.70;;;;;;5113292;28;20489;-70
2022/10/13 05:34:29;;;;;;;1.75;0.85;;;17.40;81.70;;;;;;5114507;28;20027;-70
2022/10/13 05:36:54;;;;;;;2.38;1.02;;;17.40;81.70;;;;;;5113387;28;20398;-70
2022/10/13 05:39:20;;;;;;;2.30;1.23;;;17.40;81.70;;;;;;5114343;28;20054;-70
2022/10/13 05:41:46;;;;;;;2.05;0.80;;;17.40;81.80;;;;;;5114342;28;20046;-70
2022/10/13 05:44:11;;;;;;;2.05;1.02;;;17.40;81.70;;;;;;5113268;28;20497;-70
2022/10/13 05:46:37;;;;;;;1.73;0.82;;;17.40;81.70;;;;;;5093537;28;20027;-70
2022/10/13 05:49:03;;;;;;;2.55;1.02;;;17.40;81.70;;;;;;5092865;28;20016;-70
2022/10/13 05:51:44;;;;;;;2.78;0.80;;;17.40;80.80;;;;;;5092188;28;20036;-70
2022/10/13 05:54:15;;;;;;;2.00;0.80;;;17.40;81.00;;;;;;5088276;28;20044;-70
2022/10/13 05:57:05;;;;;;;6.18;0.80;;;17.40;80.70;;;;;;5072231;28;20024;-70
2022/10/13 05:59:38;;;;;;;3.13;1.05;;;17.40;80.60;;;;;;5091382;28;20098;-70
2022/10/13 06:02:04;;;;;;;1.13;0.90;;;17.30;80.70;;;;;;5092254;28;20020;-70
2022/10/13 06:04:33;;;;;;;1.67;0.75;;;17.30;80.40;;;;;;5090419;28;20031;-71
2022/10/13 06:06:59;;;;;;;5.20;1.35;;;17.30;80.40;;;;;;5091927;28;20020;-71
2022/10/13 06:09:27;;;;;;;2.50;0.90;;;17.30;80.30;;;;;;5100437;28;20081;-71
2022/10/13 06:11:53;;;;;;;11.02;1.77;;;17.30;80.30;;;;;;5095035;28;20080;-71
2022/10/13 06:14:18;;;;;;;10.20;1.75;;;17.30;80.20;;;;;;5112990;28;20032;-71
2022/10/13 06:16:44;;;;;;;16.85;2.08;;;17.30;80.20;;;;;;5112497;28;20398;-71
2022/10/13 06:19:09;;;;;;;12.15;2.53;;;17.30;80.20;;;;;;5112916;28;20020;-71
2022/10/13 06:21:35;;;;;;;15.32;3.47;;;17.30;80.20;;;;;;5113409;28;20063;-71
2022/10/13 06:24:01;;;;;;;11.18;2.47;;;17.30;80.20;;;;;;5113622;28;20031;-71
2022/10/13 06:26:27;;;;;;;19.02;2.90;;;17.30;80.20;;;;;;5113547;28;20016;-71
2022/10/13 06:28:52;;;;;;;16.08;2.58;;;17.30;80.20;;;;;;5113191;28;20068;-71
2022/10/13 06:31:18;;;;;;;19.48;3.30;;;17.30;80.20;;;;;;5113605;28;20035;-71
2022/10/13 06:33:44;;;;;;;13.38;2.60;;;17.30;80.20;;;;;;5112498;28;20068;-71
2022/10/13 06:36:09;;;;;;;19.00;3.00;;;17.30;80.20;;;;;;5113524;28;20030;-71
2022/10/13 06:38:35;;;;;;;12.40;3.15;;;17.30;80.20;;;;;;5113070;28;20023;-71
2022/10/13 06:41:02;;;;;;;17.00;3.53;;;17.20;80.20;;;;;;5113271;28;20027;-71
2022/10/13 06:43:27;;;;;;;14.68;2.47;;;17.30;80.30;;;;;;5111849;28;20133;-71
2022/10/13 06:45:56;;;;;;;21.75;3.67;;;17.30;80.20;;;;;;5108112;28;20103;-71
2022/10/13 06:48:22;;;;;;;15.43;3.00;;;17.30;80.30;;;;;;5075355;28;20016;-71
2022/10/13 06:50:47;;;;;;;14.75;2.80;;;17.30;80.20;;;;;;5092836;28;20103;-71
2022/10/13 06:53:13;;;;;;;10.90;2.80;;;17.30;80.30;;;;;;5092580;28;20048;-71
2022/10/13 06:55:41;;;;;;;14.55;3.63;;;17.30;80.20;;;;;;5092741;28;20032;-71
2022/10/13 06:58:06;;;;;;;23.88;3.50;;;17.30;80.20;;;;;;5092701;28;20022;-71
2022/10/13 07:00:32;;;;;;;19.85;3.33;;;17.30;80.20;;;;;;5092526;28;20099;-71
2022/10/13 07:02:58;;;;;;;14.05;3.17;;;17.30;80.20;;;;;;5091577;28;20510;-71
2022/10/13 07:05:23;;;;;;;12.50;2.55;;;17.20;80.10;;;;;;5092636;28;20073;-71
2022/10/13 07:07:51;;;;;;;13.85;3.25;;;17.20;80.10;;;;;;5091414;28;20540;-71
2022/10/13 07:10:17;;;;;;;16.50;3.33;;;17.30;80.20;;;;;;5106548;28;20095;-71
2022/10/13 07:12:43;;;;;;;14.45;3.30;;;17.20;80.00;;;;;;5112599;28;20107;-71
2022/10/13 07:15:09;;;;;;;13.90;3.38;;;17.30;80.10;;;;;;5112945;28;20050;-71
2022/10/13 07:17:34;;;;;;;11.70;2.35;;;17.20;80.00;;;;;;5112597;28;20103;-71
2022/10/13 07:20:02;;;;;;;7.38;2.47;;;17.30;80.10;;;;;;5112792;28;20174;-71
2022/10/13 07:22:28;;;;;;;16.13;3.20;;;17.20;80.10;;;;;;5112942;28;20397;-71
2022/10/13 07:24:53;;;;;;;11.95;3.00;;;17.20;80.10;;;;;;5111500;28;20023;-71
2022/10/13 07:27:19;;;;;;;8.68;2.88;;;17.20;80.00;;;;;;5112535;28;20099;-71
2022/10/13 07:29:45;;;;;;;12.50;3.20;;;17.20;80.10;;;;;;5112571;28;20393;-71
2022/10/13 07:32:10;;;;;;;9.85;2.78;;;17.30;80.10;;;;;;5094687;28;20452;-71
2022/10/13 07:34:36;;;;;;;12.00;2.88;;;17.20;80.00;;;;;;5112506;28;20106;-71
2022/10/13 07:37:01;;;;;;;15.57;3.20;;;17.20;79.90;;;;;;5111353;28;20032;-71
2022/10/13 07:39:27;;;;;;;12.00;3.58;;;17.20;79.90;;;;;;5112639;28;20031;-71
2022/10/13 07:41:53;;;;;;;18.98;3.53;;;17.20;79.90;;;;;;5112255;28;20027;-71
2022/10/13 07:44:18;;;;;;;14.07;3.45;;;17.20;79.90;;;;;;5112569;28;20034;-71
2022/10/13 07:46:44;;;;;;;10.55;2.83;;;17.20;79.90;;;;;;5104037;28;20020;-71
2022/10/13 07:49:10;;;;;;;8.90;2.63;;;17.20;79.90;;;;;;5096333;28;20012;-71
2022/10/13 07:51:35;;;;;;;10.30;2.85;;;17.20;79.90;;;;;;5094977;28;20436;-71
2022/10/13 07:54:01;;;;;;;12.52;3.65;;;17.20;79.90;;;;;;5095820;28;20083;-71
2022/10/13 07:56:26;;;;;;;8.70;3.25;;;17.20;79.90;;;;;;5095903;28;20490;-71
2022/10/13 07:58:52;;;;;;;9.35;2.90;;;17.20;79.90;;;;;;5096238;28;20028;-71
2022/10/13 08:01:18;;;;;;;10.77;2.72;;;17.20;79.90;;;;;;5094883;28;20303;-71
2022/10/13 08:03:43;;;;;;;12.82;2.60;;;17.20;79.90;;;;;;5094718;28;20032;-71
2022/10/13 08:06:09;;;;;;;12.77;2.85;;;17.20;79.90;;;;;;5094694;28;20085;-71
2022/10/13 08:08:35;;;;;;;9.38;2.63;;;17.20;79.90;;;;;;5096815;28;20089;-71
2022/10/13 08:11:05;;;;;;;12.00;2.90;;;17.20;79.90;;;;;;5114864;28;20504;-71
2022/10/13 08:13:31;;;;;;;10.32;3.08;;;17.20;79.90;;;;;;5115322;28;20020;-71
2022/10/13 08:15:59;;;;;;;7.38;2.53;;;17.20;79.90;;;;;;5116042;28;20107;-71
2022/10/13 08:18:24;;;;;;;10.02;3.63;;;17.20;79.80;;;;;;5116033;28;20413;-71
2022/10/13 08:20:50;;;;;;;8.27;2.95;;;17.20;79.70;;;;;;5115970;28;20024;-71
2022/10/13 08:23:16;;;;;;;7.95;2.38;;;17.20;79.80;;;;;;5116069;28;20402;-71
2022/10/13 08:25:42;;;;;;;10.68;2.63;;;17.20;79.80;;;;;;5115585;28;20027;-71
2022/10/13 08:28:18;;;;;;;8.18;2.83;;;17.20;79.80;;;;;;5114819;28;20043;-71
2022/10/13 08:30:44;;;;;;;13.32;2.83;;;17.10;79.70;;;;;;5114825;28;20026;-71
2022/10/13 08:33:10;;;;;;;12.23;2.90;;;17.10;79.80;;;;;;5115713;28;20020;-71
2022/10/13 08:35:36;;;;;;;10.45;2.70;;;17.10;79.70;;;;;;5115717;28;20031;-71
2022/10/13 08:38:01;;;;;;;10.00;2.90;;;17.10;79.70;;;;;;5114469;28;20081;-71
2022/10/13 08:40:27;;;;;;;6.65;2.40;;;17.10;79.70;;;;;;5115386;28;20031;-71
2022/10/13 08:42:52;;;;;;;9.52;2.70;;;17.10;79.70;;;;;;5097451;28;20035;-71
2022/10/13 08:45:25;;;;;;;11.10;2.70;;;17.10;79.70;;;;;;5114270;28;20027;-71
2022/10/13 08:48:01;;;;;;;9.38;3.10;;;17.10;79.70;;;;;;5077604;28;20027;-71
2022/10/13 08:50:29;;;;;;;10.20;2.38;;;17.10;79.70;;;;;;5093946;28;20068;-71
2022/10/13 08:53:10;;;;;;;7.53;2.00;;;17.10;79.70;;;;;;5093621;28;20040;-71
2022/10/13 08:55:39;;;;;;;7.22;2.15;;;17.10;79.60;;;;;;5093625;28;20051;-71
2022/10/13 08:58:33;;;;;;;7.30;2.42;;;17.10;79.60;;;;;;5092494;28;20506;-71
2022/10/13 09:01:08;;;;;;;9.38;2.63;;;17.10;79.70;;;;;;5091668;28;20032;-71
2022/10/13 09:03:42;;;;;;;6.47;2.40;;;17.10;79.70;;;;;;5095094;28;20086;-71
2022/10/13 09:06:38;;;;;;;8.32;2.45;;;17.10;79.80;;;;;;5094834;28;20024;-71
2022/10/13 09:09:09;;;;;;;11.00;3.22;;;17.10;79.70;;;;;;5038301;28;20494;-71
2022/10/13 09:11:36;;;;;;;7.13;2.55;;;17.10;79.70;;;;;;5055808;28;20047;-71
2022/10/13 09:14:27;;;;;;;7.72;2.40;;;17.10;79.80;;;;;;5055291;28;20032;-71
2022/10/13 09:16:54;;;;;;;10.38;2.53;;;17.10;79.70;;;;;;5055437;28;20021;-71
2022/10/13 09:19:35;;;;;;;9.70;2.35;;;17.10;79.80;;;;;;5055550;28;20045;-71
2022/10/13 09:22:27;;;;;;;7.13;2.38;;;17.10;79.70;;;;;;5071921;28;20036;-71
2022/10/13 09:25:09;;;;;;;6.15;2.58;;;17.10;79.70;;;;;;5057052;28;20039;-71
2022/10/13 09:27:44;;;;;;;8.88;2.92;;;17.10;79.80;;;;;;5055252;28;20028;-71
2022/10/13 09:30:32;;;;;;;10.68;3.20;;;17.10;79.80;;;;;;5055345;28;20025;-71
2022/10/13 09:33:12;;;;;;;6.45;2.33;;;17.10;79.80;;;;;;5055198;28;20029;-71
2022/10/13 09:35:42;;;;;;;8.88;2.67;;;17.10;79.70;;;;;;5071768;28;20028;-71
2022/10/13 09:38:14;;;;;;;7.20;2.30;;;17.10;79.80;;;;;;5071524;28;20116;-71
2022/10/13 09:40:40;;;;;;;9.90;2.72;;;17.10;79.80;;;;;;5054915;28;20036;-71
2022/10/13 09:43:25;;;;;;;8.80;2.60;;;17.10;79.80;;;;;;5071681;28;20465;-71
2022/10/13 09:45:50;;;;;;;7.22;2.22;;;17.10;79.80;;;;;;5080244;28;20457;-71
2022/10/13 09:48:20;;;;;;;6.15;2.33;;;17.10;79.80;;;;;;5092878;28;20092;-71
2022/10/13 09:50:48;;;;;;;9.07;2.03;;;17.10;79.80;;;;;;5076260;28;20099;-71
2022/10/13 09:53:37;;;;;;;7.38;2.03;;;17.10;79.80;;;;;;5092218;28;20115;-71
2022/10/13 09:56:20;;;;;;;6.22;2.03;;;17.10;79.80;;;;;;5093248;28;20044;-71
2022/10/13 09:59:00;;;;;;;7.90;2.35;;;17.10;79.80;;;;;;5076362;28;20028;-71
2022/10/13 10:01:33;;;;;;;4.68;2.10;;;17.10;79.90;;;;;;5077419;28;20020;-71
2022/10/13 10:04:00;;;;;;;6.80;2.03;;;17.10;80.90;;;;;;5076364;28;20173;-71
2022/10/13 10:06:25;;;;;;;4.25;2.00;;;17.10;79.90;;;;;;5075420;28;20031;-71
2022/10/13 10:09:02;;;;;;;9.82;2.45;;;17.10;80.00;;;;;;5096384;28;20016;-71
2022/10/13 10:11:29;;;;;;;9.02;2.30;;;17.10;80.00;;;;;;5112838;28;20012;-71
2022/10/13 10:13:56;;;;;;;6.47;2.22;;;17.00;79.90;;;;;;5112622;28;20097;-71
2022/10/13 10:16:32;;;;;;;10.70;2.45;;;17.00;79.90;;;;;;5112703;28;20094;-71
2022/10/13 10:19:02;;;;;;;6.20;2.55;;;17.10;80.00;;;;;;5096367;28;20024;-71
2022/10/13 10:21:47;;;;;;;6.28;2.30;;;17.10;80.00;;;;;;5112435;28;20016;-71
2022/10/13 10:24:32;;;;;;;7.80;2.65;;;17.10;80.00;;;;;;5112440;28;20027;-71
2022/10/13 10:27:02;;;;;;;7.95;1.85;;;17.00;79.90;;;;;;5113540;28;20546;-71
2022/10/13 10:30:09;;;;;;;6.80;2.30;;;17.10;80.10;;;;;;5095720;28;20024;-71
2022/10/13 10:32:58;;;;;;;3.50;1.70;;;17.10;80.00;;;;;;5050677;28;20029;-71
2022/10/13 10:35:54;;;;;;;5.50;1.92;;;17.10;80.00;;;;;;5034040;28;20059;-71
2022/10/13 10:38:41;;;;;;;7.47;2.15;;;17.00;80.00;;;;;;5034446;28;20441;-71
2022/10/13 10:41:30;;;;;;;5.22;2.00;;;17.10;80.10;;;;;;5050565;28;20055;-71
2022/10/13 10:44:03;;;;;;;5.20;1.98;;;17.10;80.10;;;;;;5033709;28;20021;-71
2022/10/13 10:46:34;;;;;;;7.22;1.95;;;17.10;81.10;;;;;;5025496;28;20069;-71
2022/10/13 10:49:02;;;;;;;5.13;2.30;;;17.10;80.10;;;;;;5014025;28;20017;-71
2022/10/13 10:51:34;;;;;;;3.47;1.75;;;17.10;80.10;;;;;;5014120;28;20026;-71
2022/10/13 10:54:07;;;;;;;6.07;1.88;;;17.00;80.00;;;;;;5013868;28;20581;-71
2022/10/13 10:56:43;;;;;;;4.57;1.60;;;17.10;80.10;;;;;;5030398;28;20029;-71
2022/10/13 10:59:39;;;;;;;5.47;1.75;;;17.10;80.20;;;;;;5013904;28;20032;-71
2022/10/13 11:02:07;;;;;;;4.85;1.85;;;17.10;80.10;;;;;;5014070;28;20025;-71
2022/10/13 11:04:39;;;;;;;5.50;1.95;;;17.10;80.10;;;;;;5030328;28;20105;-71
2022/10/13 11:07:09;;;;;;;5.22;1.70;;;17.00;80.10;;;;;;5060071;28;20037;-71
2022/10/13 11:09:41;;;;;;;5.53;1.80;;;17.00;80.00;;;;;;5090771;28;20035;-71
2022/10/13 11:12:25;;;;;;;6.75;1.63;;;17.00;80.10;;;;;;5112939;28;20028;-71
2022/10/13 11:14:54;;;;;;;4.57;1.77;;;17.00;80.00;;;;;;5111747;28;20170;-71
2022/10/13 11:17:36;;;;;;;4.72;1.70;;;17.10;80.10;;;;;;5112744;28;20035;-71
2022/10/13 11:20:20;;;;;;;7.13;1.75;;;17.10;80.10;;;;;;5110718;28;20344;-71
2022/10/13 11:22:58;;;;;;;6.47;1.90;;;17.10;80.10;;;;;;5112855;28;20078;-71
2022/10/13 11:25:39;;;;;;;5.00;2.25;;;17.10;80.10;;;;;;5112796;28;20030;-71
2022/10/13 11:28:20;;;;;;;4.63;1.90;;;17.00;80.10;;;;;;5111686;28;20029;-71
2022/10/13 11:31:09;;;;;;;3.67;1.50;;;17.10;80.10;;;;;;5112785;28;20144;-71
2022/10/13 11:33:38;;;;;;;4.40;1.92;;;17.00;80.00;;;;;;5035958;28;20033;-71
2022/10/13 11:36:28;;;;;;;3.97;1.52;;;17.10;80.40;;;;;;5049803;28;20047;-71
2022/10/13 11:39:16;;;;;;;5.60;1.95;;;17.10;80.10;;;;;;5049989;28;20036;-71
2022/10/13 11:41:47;;;;;;;3.60;1.73;;;17.10;80.10;;;;;;5022413;28;20570;-71
2022/10/13 11:44:25;;;;;;;4.80;1.73;;;17.00;80.10;;;;;;5033003;28;20534;-71
2022/10/13 11:47:02;;;;;;;4.72;1.65;;;17.10;80.10;;;;;;5022519;28;20423;-71
2022/10/13 11:49:49;;;;;;;4.70;1.50;;;17.00;80.00;;;;;;5013527;28;20508;-71
2022/10/13 11:52:26;;;;;;;4.10;2.10;;;17.00;80.00;;;;;;5013199;28;20029;-71
2022/10/13 11:54:54;;;;;;;3.97;2.10;;;17.00;80.00;;;;;;5013483;28;20048;-71
2022/10/13 11:57:24;;;;;;;5.72;1.55;;;17.00;80.10;;;;;;5013416;28;20084;-71
2022/10/13 11:59:54;;;;;;;4.30;1.85;;;17.10;80.20;;;;;;5013820;28;20104;-71
2022/10/13 12:02:21;;;;;;;3.97;1.90;;;17.00;80.10;;;;;;5013671;28;20069;-71
2022/10/13 12:05:02;;;;;;;4.00;1.70;;;17.00;80.00;;;;;;4997197;28;20542;-71
2022/10/13 12:07:33;;;;;;;4.35;1.75;;;17.00;80.00;;;;;;5029831;28;20109;-71
2022/10/13 12:09:59;;;;;;;4.22;1.33;;;17.00;80.10;;;;;;5038629;28;20043;-71
2022/10/13 12:12:24;;;;;;;3.17;1.83;;;17.10;80.10;;;;;;5111071;28;20024;-71
2022/10/13 12:14:52;;;;;;;2.47;1.30;;;17.10;80.20;;;;;;5094355;28;20084;-71
2022/10/13 12:17:31;;;;;;;3.70;1.85;;;17.10;80.10;;;;;;5094032;28;20438;-71
2022/10/13 12:20:03;;;;;;;2.58;1.45;;;17.00;80.10;;;;;;5112164;28;20083;-71
2022/10/13 12:22:29;;;;;;;3.30;1.67;;;17.10;80.10;;;;;;5094474;28;20072;-71
2022/10/13 12:24:59;;;;;;;3.85;1.60;;;17.10;80.20;;;;;;5110957;28;20474;-71
2022/10/13 12:27:26;;;;;;;3.50;1.38;;;17.10;80.10;;;;;;5110938;28;20016;-71
2022/10/13 12:29:52;;;;;;;4.10;1.60;;;17.10;80.10;;;;;;5111056;28;20020;-71
2022/10/13 12:32:22;;;;;;;3.50;1.40;;;17.10;80.20;;;;;;5111544;28;20034;-71
2022/10/13 12:34:48;;;;;;;2.65;1.33;;;17.10;80.10;;;;;;5097989;28;20100;-71
2022/10/13 12:37:40;;;;;;;4.68;1.70;;;17.10;80.20;;;;;;5114174;28;20489;-71
2022/10/13 12:40:08;;;;;;;2.50;1.20;;;17.10;80.10;;;;;;5114390;28;20118;-71
2022/10/13 12:42:34;;;;;;;4.00;1.80;;;17.00;80.10;;;;;;5097525;28;20036;-71
2022/10/13 12:45:00;;;;;;;3.10;1.90;;;17.10;80.10;;;;;;5097291;28;20106;-71
2022/10/13 12:47:44;;;;;;;2.92;1.40;;;17.10;80.20;;;;;;5080621;28;20103;-71
2022/10/13 12:50:19;;;;;;;3.63;1.70;;;17.10;80.20;;;;;;5095244;28;20089;-71
2022/10/13 12:52:44;;;;;;;5.25;1.88;;;17.00;80.10;;;;;;5094808;28;20047;-71
2022/10/13 12:55:16;;;;;;;3.50;1.50;;;17.10;80.20;;;;;;5076929;28;20032;-71
2022/10/13 12:57:44;;;;;;;3.72;1.50;;;17.10;80.20;;;;;;5093659;28;20024;-71
2022/10/13 13:00:19;;;;;;;5.70;1.73;;;17.00;80.10;;;;;;5077030;28;20035;-71